CST,Max TemperatureF,Mean TemperatureF,Min TemperatureF,Max Dew PointF,MeanDew PointF,Min DewpointF,Max Humidity, Mean Humidity, Min Humidity, Max Sea Level PressureIn, Mean Sea Level PressureIn, Min Sea Level PressureIn, Max VisibilityMiles, Mean VisibilityMiles, Min VisibilityMiles, Max Wind SpeedMPH, Mean Wind SpeedMPH, Max Gust SpeedMPH,PrecipitationIn, CloudCover, Events, WindDirDegrees
2012-11-1,75,58,44,41,37,32,66,51,29,30.02,29.96,29.87,10,10,10,16,6,26,0.00,0,,255
2012-11-2,63,52,41,40,35,31,76,55,39,30.00,29.95,29.88,10,10,10,14,10,21,0.00,0,,76
2012-11-3,57,47,39,33,32,31,73,58,40,30.21,30.12,29.95,10,10,9,13,9,,0.00,0,,351
2012-11-4,59,48,39,39,36,32,82,63,46,30.25,30.16,30.04,10,10,10,10,3,,0.00,2,,166
2012-11-5,50,46,41,45,42,37,93,88,77,30.13,30.05,29.97,10,7,2,15,7,20,0.06,8,Rain,348
2012-11-6,57,49,41,40,36,29,93,69,37,30.11,30.05,29.99,10,9,5,24,5,37,0.00,4,,274
2012-11-7,54,46,39,33,31,29,73,60,43,30.20,30.13,30.08,10,10,10,12,7,16,0.00,0,,336
2012-11-8,66,52,37,40,36,31,79,56,36,30.13,30.01,29.92,10,10,10,12,9,23,0.00,0,,158
2012-11-9,73,62,50,57,50,38,73,64,55,29.92,29.84,29.77,10,10,10,20,11,28,0.00,0,,175
2012-11-10,72,68,63,56,53,49,75,60,45,29.81,29.76,29.70,10,10,10,23,17,37,0.00,0,,185
2012-11-11,66,48,28,56,41,20,94,85,63,30.22,29.85,29.66,10,6,2,25,12,36,1.12,7,Rain-Thunderstorm,285
2012-11-12,44,32,21,21,18,16,82,54,32,30.45,30.38,30.27,10,10,10,14,7,23,0.00,0,,244
2012-11-13,52,42,32,32,27,18,64,53,43,30.47,30.42,30.35,10,10,10,9,5,,0.00,0,,182
2012-11-14,55,46,37,29,26,22,62,46,28,30.42,30.36,30.30,10,10,10,12,7,,0.00,0,,178
2012-11-15,55,47,39,34,30,26,68,52,41,30.40,30.33,30.28,10,10,10,12,6,,0.00,1,,200
2012-11-16,57,46,36,36,34,32,86,65,41,30.48,30.41,30.38,10,10,10,8,4,,0.00,0,,78
2012-11-17,59,49,39,34,31,28,76,54,33,30.42,30.36,30.30,10,10,10,13,7,21,0.00,0,,160
2012-11-18,61,52,42,34,31,28,58,45,36,30.30,30.23,30.16,10,10,10,15,9,21,0.00,1,,172
2012-11-19,63,56,48,47,44,32,90,67,42,30.16,30.12,30.06,10,10,10,15,11,22,0.00,2,Rain,206
2012-11-20,63,52,41,45,41,37,93,68,46,30.22,30.18,30.10,10,10,8,8,4,,0.00,0,,276
2012-11-21,70,58,45,43,39,36,82,55,31,30.22,30.14,29.99,10,10,9,18,8,23,0.00,0,,191
2012-11-22,66,57,46,51,41,32,63,55,44,30.24,29.99,29.87,10,10,10,21,16,31,0.00,1,,227
2012-11-23,44,36,27,32,16,10,63,46,35,30.49,30.42,30.27,10,10,10,23,13,34,0.00,0,,315
2012-11-24,44,34,24,23,16,10,58,47,37,30.43,30.20,29.93,10,10,10,14,6,20,0.00,0,,192
2012-11-25,55,46,37,31,26,23,70,50,37,30.05,29.96,29.91,10,10,10,13,9,22,0.00,0,,307
2012-11-26,42,34,23,27,23,13,82,68,47,30.49,30.30,30.08,10,10,9,21,13,28,0.00,1,Snow,25
2012-11-27,39,28,17,19,15,10,77,57,38,30.50,30.40,30.31,10,10,10,10,4,,0.00,0,,205
2012-11-28,52,40,28,29,25,20,72,57,40,30.43,30.33,30.20,10,10,10,10,6,,0.00,0,,190
2012-11-29,62,50,39,41,34,29,68,56,46,30.19,30.07,29.99,10,10,10,17,11,24,0.00,0,,196
2012-11-30,63,54,44,47,38,34,80,60,40,30.09,30.05,30.01,10,10,10,13,9,,0.00,0,,202